sensor_id;sensor_type;location;lat;lon;timestamp;P1;durP1;ratioP1;P2;durP2;ratioP2
78612;SDS011;67933;51.060;3.638;2023-06-10T00:01:40;9.82;;;8.27;;
78612;SDS011;67933;51.060;3.638;2023-06-10T00:04:06;9.65;;;7.68;;
78612;SDS011;67933;51.060;3.638;2023-06-10T00:06:32;10.85;;;8.05;;
78612;SDS011;67933;51.060;3.638;2023-06-10T00:09:10;9.85;;;7.53;;
78612;SDS011;67933;51.060;3.638;2023-06-10T00:11:36;8.68;;;7.78;;
78612;SDS011;67933;51.060;3.638;2023-06-10T00:14:02;9.50;;;7.93;;
78612;SDS011;67933;51.060;3.638;2023-06-10T00:16:28;10.85;;;8.43;;
78612;SDS011;67933;51.060;3.638;2023-06-10T00:18:53;10.10;;;7.78;;
78612;SDS011;67933;51.060;3.638;2023-06-10T00:21:26;8.98;;;8.07;;
78612;SDS011;67933;51.060;3.638;2023-06-10T00:24:05;9.52;;;8.63;;
78612;SDS011;67933;51.060;3.638;2023-06-10T00:26:39;10.40;;;7.85;;
78612;SDS011;67933;51.060;3.638;2023-06-10T00:29:05;9.52;;;8.52;;
78612;SDS011;67933;51.060;3.638;2023-06-10T00:31:31;9.82;;;8.82;;
78612;SDS011;67933;51.060;3.638;2023-06-10T00:33:56;12.15;;;7.75;;
78612;SDS011;67933;51.060;3.638;2023-06-10T00:36:23;9.27;;;7.93;;
78612;SDS011;67933;51.060;3.638;2023-06-10T00:38:49;11.32;;;8.23;;
78612;SDS011;67933;51.060;3.638;2023-06-10T00:41:14;8.40;;;7.68;;
78612;SDS011;67933;51.060;3.638;2023-06-10T00:43:40;12.40;;;8.10;;
78612;SDS011;67933;51.060;3.638;2023-06-10T00:46:05;8.65;;;7.78;;
78612;SDS011;67933;51.060;3.638;2023-06-10T00:48:31;9.52;;;7.93;;
78612;SDS011;67933;51.060;3.638;2023-06-10T00:50:57;9.63;;;8.18;;
78612;SDS011;67933;51.060;3.638;2023-06-10T00:53:23;10.10;;;8.18;;
78612;SDS011;67933;51.060;3.638;2023-06-10T00:55:50;9.40;;;7.57;;
78612;SDS011;67933;51.060;3.638;2023-06-10T00:58:15;9.02;;;8.13;;
78612;SDS011;67933;51.060;3.638;2023-06-10T01:00:41;8.82;;;7.93;;
78612;SDS011;67933;51.060;3.638;2023-06-10T01:03:06;9.05;;;7.88;;
78612;SDS011;67933;51.060;3.638;2023-06-10T01:05:34;8.57;;;7.63;;
78612;SDS011;67933;51.060;3.638;2023-06-10T01:10:34;11.70;;;8.23;;
78612;SDS011;67933;51.060;3.638;2023-06-10T01:13:03;9.57;;;8.32;;
78612;SDS011;67933;51.060;3.638;2023-06-10T01:15:33;9.30;;;8.43;;
78612;SDS011;67933;51.060;3.638;2023-06-10T01:18:10;8.98;;;7.88;;
78612;SDS011;67933;51.060;3.638;2023-06-10T01:20:40;9.48;;;8.57;;
78612;SDS011;67933;51.060;3.638;2023-06-10T01:23:07;11.15;;;8.63;;
78612;SDS011;67933;51.060;3.638;2023-06-10T01:25:37;9.13;;;8.15;;
78612;SDS011;67933;51.060;3.638;2023-06-10T01:28:08;10.60;;;8.70;;
78612;SDS011;67933;51.060;3.638;2023-06-10T01:33:24;9.73;;;8.48;;
78612;SDS011;67933;51.060;3.638;2023-06-10T01:35:52;8.82;;;7.93;;
78612;SDS011;67933;51.060;3.638;2023-06-10T01:38:18;8.65;;;7.75;;
78612;SDS011;67933;51.060;3.638;2023-06-10T01:40:45;9.27;;;8.23;;
78612;SDS011;67933;51.060;3.638;2023-06-10T01:43:13;10.15;;;8.00;;
78612;SDS011;67933;51.060;3.638;2023-06-10T01:45:38;10.77;;;9.77;;
78612;SDS011;67933;51.060;3.638;2023-06-10T01:48:04;11.05;;;8.50;;
78612;SDS011;67933;51.060;3.638;2023-06-10T01:50:29;11.05;;;9.13;;
78612;SDS011;67933;51.060;3.638;2023-06-10T01:52:56;8.82;;;7.93;;
78612;SDS011;67933;51.060;3.638;2023-06-10T01:55:23;9.02;;;8.13;;
78612;SDS011;67933;51.060;3.638;2023-06-10T01:57:48;10.13;;;7.97;;
78612;SDS011;67933;51.060;3.638;2023-06-10T02:00:14;10.60;;;8.57;;
78612;SDS011;67933;51.060;3.638;2023-06-10T02:02:40;10.00;;;8.32;;
78612;SDS011;67933;51.060;3.638;2023-06-10T02:05:06;10.05;;;8.77;;
78612;SDS011;67933;51.060;3.638;2023-06-10T02:07:31;10.15;;;8.20;;
78612;SDS011;67933;51.060;3.638;2023-06-10T02:09:57;9.25;;;8.35;;
78612;SDS011;67933;51.060;3.638;2023-06-10T02:12:22;9.88;;;8.85;;
78612;SDS011;67933;51.060;3.638;2023-06-10T02:14:47;9.32;;;8.15;;
78612;SDS011;67933;51.060;3.638;2023-06-10T02:17:13;10.30;;;9.20;;
78612;SDS011;67933;51.060;3.638;2023-06-10T02:19:39;10.60;;;8.98;;
78612;SDS011;67933;51.060;3.638;2023-06-10T02:22:08;10.10;;;9.07;;
78612;SDS011;67933;51.060;3.638;2023-06-10T02:24:36;10.07;;;8.60;;
78612;SDS011;67933;51.060;3.638;2023-06-10T02:27:03;10.35;;;8.90;;
78612;SDS011;67933;51.060;3.638;2023-06-10T02:29:31;9.70;;;8.52;;
78612;SDS011;67933;51.060;3.638;2023-06-10T02:31:58;10.68;;;8.95;;
78612;SDS011;67933;51.060;3.638;2023-06-10T02:34:23;10.07;;;8.93;;
78612;SDS011;67933;51.060;3.638;2023-06-10T02:36:49;10.95;;;9.73;;
78612;SDS011;67933;51.060;3.638;2023-06-10T02:39:16;12.73;;;9.20;;
78612;SDS011;67933;51.060;3.638;2023-06-10T02:41:41;10.88;;;9.10;;
78612;SDS011;67933;51.060;3.638;2023-06-10T02:44:07;10.40;;;9.23;;
78612;SDS011;67933;51.060;3.638;2023-06-10T02:46:32;11.32;;;9.15;;
78612;SDS011;67933;51.060;3.638;2023-06-10T02:48:59;9.95;;;8.82;;
78612;SDS011;67933;51.060;3.638;2023-06-10T02:51:24;12.32;;;9.65;;
78612;SDS011;67933;51.060;3.638;2023-06-10T02:53:50;12.07;;;9.75;;
78612;SDS011;67933;51.060;3.638;2023-06-10T02:56:16;11.43;;;9.20;;
78612;SDS011;67933;51.060;3.638;2023-06-10T02:58:41;10.45;;;9.38;;
78612;SDS011;67933;51.060;3.638;2023-06-10T03:01:07;15.88;;;9.73;;
78612;SDS011;67933;51.060;3.638;2023-06-10T03:03:34;16.92;;;9.43;;
78612;SDS011;67933;51.060;3.638;2023-06-10T03:06:01;10.98;;;9.52;;
78612;SDS011;67933;51.060;3.638;2023-06-10T03:08:28;10.10;;;9.10;;
78612;SDS011;67933;51.060;3.638;2023-06-10T03:10:53;10.38;;;9.35;;
78612;SDS011;67933;51.060;3.638;2023-06-10T03:13:19;11.90;;;9.63;;
78612;SDS011;67933;51.060;3.638;2023-06-10T03:15:44;12.02;;;9.73;;
78612;SDS011;67933;51.060;3.638;2023-06-10T03:18:11;10.35;;;9.30;;
78612;SDS011;67933;51.060;3.638;2023-06-10T03:20:36;11.13;;;10.02;;
78612;SDS011;67933;51.060;3.638;2023-06-10T03:23:02;11.55;;;9.70;;
78612;SDS011;67933;51.060;3.638;2023-06-10T03:25:30;12.10;;;10.05;;
78612;SDS011;67933;51.060;3.638;2023-06-10T03:27:55;11.57;;;9.98;;
78612;SDS011;67933;51.060;3.638;2023-06-10T03:30:21;13.02;;;9.75;;
78612;SDS011;67933;51.060;3.638;2023-06-10T03:32:46;13.90;;;10.52;;
78612;SDS011;67933;51.060;3.638;2023-06-10T03:35:11;10.65;;;9.65;;
78612;SDS011;67933;51.060;3.638;2023-06-10T03:37:37;11.27;;;9.77;;
78612;SDS011;67933;51.060;3.638;2023-06-10T03:40:02;13.77;;;9.95;;
78612;SDS011;67933;51.060;3.638;2023-06-10T03:42:28;12.30;;;11.10;;
78612;SDS011;67933;51.060;3.638;2023-06-10T03:44:54;11.65;;;9.82;;
78612;SDS011;67933;51.060;3.638;2023-06-10T03:47:20;10.65;;;9.55;;
78612;SDS011;67933;51.060;3.638;2023-06-10T03:49:46;13.82;;;10.20;;
78612;SDS011;67933;51.060;3.638;2023-06-10T03:52:11;13.95;;;10.27;;
78612;SDS011;67933;51.060;3.638;2023-06-10T03:54:37;12.20;;;10.65;;
78612;SDS011;67933;51.060;3.638;2023-06-10T03:57:02;13.20;;;10.02;;
78612;SDS011;67933;51.060;3.638;2023-06-10T03:59:28;13.00;;;10.00;;
78612;SDS011;67933;51.060;3.638;2023-06-10T04:01:55;11.65;;;9.88;;
78612;SDS011;67933;51.060;3.638;2023-06-10T04:04:20;14.00;;;10.02;;
78612;SDS011;67933;51.060;3.638;2023-06-10T04:06:45;11.98;;;10.77;;
78612;SDS011;67933;51.060;3.638;2023-06-10T04:09:12;12.10;;;10.80;;
78612;SDS011;67933;51.060;3.638;2023-06-10T04:11:37;11.95;;;9.68;;
78612;SDS011;67933;51.060;3.638;2023-06-10T04:14:03;13.32;;;11.32;;
78612;SDS011;67933;51.060;3.638;2023-06-10T04:16:29;11.15;;;10.02;;
78612;SDS011;67933;51.060;3.638;2023-06-10T04:18:54;12.77;;;10.30;;
78612;SDS011;67933;51.060;3.638;2023-06-10T04:21:20;14.02;;;10.05;;
78612;SDS011;67933;51.060;3.638;2023-06-10T04:23:46;14.05;;;10.63;;
78612;SDS011;67933;51.060;3.638;2023-06-10T04:26:12;11.20;;;9.85;;
78612;SDS011;67933;51.060;3.638;2023-06-10T04:28:38;12.05;;;10.45;;
78612;SDS011;67933;51.060;3.638;2023-06-10T04:31:03;13.73;;;10.70;;
78612;SDS011;67933;51.060;3.638;2023-06-10T04:33:29;12.32;;;10.52;;
78612;SDS011;67933;51.060;3.638;2023-06-10T04:35:55;12.05;;;9.65;;
78612;SDS011;67933;51.060;3.638;2023-06-10T04:38:20;12.00;;;10.10;;
78612;SDS011;67933;51.060;3.638;2023-06-10T04:40:46;11.57;;;10.18;;
78612;SDS011;67933;51.060;3.638;2023-06-10T04:43:11;14.27;;;10.90;;
78612;SDS011;67933;51.060;3.638;2023-06-10T04:45:38;14.35;;;11.07;;
78612;SDS011;67933;51.060;3.638;2023-06-10T04:48:03;15.57;;;9.98;;
78612;SDS011;67933;51.060;3.638;2023-06-10T04:50:29;13.05;;;11.27;;
78612;SDS011;67933;51.060;3.638;2023-06-10T04:52:54;12.20;;;10.63;;
78612;SDS011;67933;51.060;3.638;2023-06-10T04:55:22;16.10;;;11.48;;
78612;SDS011;67933;51.060;3.638;2023-06-10T04:57:48;12.57;;;10.40;;
78612;SDS011;67933;51.060;3.638;2023-06-10T05:00:13;12.52;;;11.02;;
78612;SDS011;67933;51.060;3.638;2023-06-10T05:02:39;12.35;;;10.38;;
78612;SDS011;67933;51.060;3.638;2023-06-10T05:05:06;15.63;;;10.90;;
78612;SDS011;67933;51.060;3.638;2023-06-10T05:07:31;12.13;;;10.60;;
78612;SDS011;67933;51.060;3.638;2023-06-10T05:09:57;18.85;;;12.05;;
78612;SDS011;67933;51.060;3.638;2023-06-10T05:12:22;11.13;;;9.85;;
78612;SDS011;67933;51.060;3.638;2023-06-10T05:14:47;12.13;;;10.50;;
78612;SDS011;67933;51.060;3.638;2023-06-10T05:17:13;13.18;;;10.52;;
78612;SDS011;67933;51.060;3.638;2023-06-10T05:19:38;12.85;;;11.05;;
78612;SDS011;67933;51.060;3.638;2023-06-10T05:22:04;12.55;;;10.88;;
78612;SDS011;67933;51.060;3.638;2023-06-10T05:24:29;12.18;;;10.75;;
78612;SDS011;67933;51.060;3.638;2023-06-10T05:26:55;14.23;;;10.77;;
78612;SDS011;67933;51.060;3.638;2023-06-10T05:29:20;13.75;;;11.25;;
78612;SDS011;67933;51.060;3.638;2023-06-10T05:31:45;13.63;;;11.05;;
78612;SDS011;67933;51.060;3.638;2023-06-10T05:34:11;19.60;;;11.35;;
78612;SDS011;67933;51.060;3.638;2023-06-10T05:36:36;12.77;;;10.55;;
78612;SDS011;67933;51.060;3.638;2023-06-10T05:39:02;12.20;;;10.88;;
78612;SDS011;67933;51.060;3.638;2023-06-10T05:41:28;11.68;;;10.10;;
78612;SDS011;67933;51.060;3.638;2023-06-10T05:43:53;13.88;;;10.35;;
78612;SDS011;67933;51.060;3.638;2023-06-10T05:46:19;13.80;;;9.80;;
78612;SDS011;67933;51.060;3.638;2023-06-10T05:48:45;12.38;;;10.30;;
78612;SDS011;67933;51.060;3.638;2023-06-10T05:51:10;11.32;;;10.10;;
78612;SDS011;67933;51.060;3.638;2023-06-10T05:53:35;14.73;;;10.75;;
78612;SDS011;67933;51.060;3.638;2023-06-10T05:56:01;14.13;;;10.55;;
78612;SDS011;67933;51.060;3.638;2023-06-10T05:58:26;12.02;;;10.93;;
78612;SDS011;67933;51.060;3.638;2023-06-10T06:00:52;11.95;;;10.02;;
78612;SDS011;67933;51.060;3.638;2023-06-10T06:03:17;14.30;;;9.82;;
78612;SDS011;67933;51.060;3.638;2023-06-10T06:05:43;13.68;;;10.27;;
78612;SDS011;67933;51.060;3.638;2023-06-10T06:08:09;11.88;;;10.68;;
78612;SDS011;67933;51.060;3.638;2023-06-10T06:10:35;10.73;;;9.63;;
78612;SDS011;67933;51.060;3.638;2023-06-10T06:13:00;13.25;;;10.20;;
78612;SDS011;67933;51.060;3.638;2023-06-10T06:15:27;12.80;;;10.48;;
78612;SDS011;67933;51.060;3.638;2023-06-10T06:17:53;11.27;;;10.18;;
78612;SDS011;67933;51.060;3.638;2023-06-10T06:20:20;14.88;;;10.65;;
78612;SDS011;67933;51.060;3.638;2023-06-10T06:22:47;10.48;;;9.25;;
78612;SDS011;67933;51.060;3.638;2023-06-10T06:25:12;14.38;;;9.40;;
78612;SDS011;67933;51.060;3.638;2023-06-10T06:27:38;11.65;;;10.45;;
78612;SDS011;67933;51.060;3.638;2023-06-10T06:30:03;11.15;;;9.95;;
78612;SDS011;67933;51.060;3.638;2023-06-10T06:32:30;12.18;;;10.52;;
78612;SDS011;67933;51.060;3.638;2023-06-10T06:34:55;15.43;;;10.32;;
78612;SDS011;67933;51.060;3.638;2023-06-10T06:37:21;13.52;;;9.88;;
78612;SDS011;67933;51.060;3.638;2023-06-10T06:39:49;10.95;;;9.90;;
78612;SDS011;67933;51.060;3.638;2023-06-10T06:42:15;10.73;;;9.65;;
78612;SDS011;67933;51.060;3.638;2023-06-10T06:44:41;15.10;;;10.25;;
78612;SDS011;67933;51.060;3.638;2023-06-10T06:47:06;11.82;;;10.63;;
78612;SDS011;67933;51.060;3.638;2023-06-10T06:49:32;10.88;;;9.55;;
78612;SDS011;67933;51.060;3.638;2023-06-10T06:51:57;9.85;;;8.85;;
78612;SDS011;67933;51.060;3.638;2023-06-10T06:54:23;9.60;;;8.70;;
78612;SDS011;67933;51.060;3.638;2023-06-10T06:56:48;10.05;;;9.15;;
78612;SDS011;67933;51.060;3.638;2023-06-10T06:59:13;11.20;;;9.27;;
78612;SDS011;67933;51.060;3.638;2023-06-10T07:01:39;13.18;;;9.02;;
78612;SDS011;67933;51.060;3.638;2023-06-10T07:04:04;10.70;;;8.93;;
78612;SDS011;67933;51.060;3.638;2023-06-10T07:06:30;11.38;;;8.27;;
78612;SDS011;67933;51.060;3.638;2023-06-10T07:08:55;11.43;;;9.18;;
78612;SDS011;67933;51.060;3.638;2023-06-10T07:11:21;11.63;;;8.77;;
78612;SDS011;67933;51.060;3.638;2023-06-10T07:13:47;9.10;;;8.18;;
78612;SDS011;67933;51.060;3.638;2023-06-10T07:16:12;10.23;;;8.68;;
78612;SDS011;67933;51.060;3.638;2023-06-10T07:18:37;9.93;;;8.45;;
78612;SDS011;67933;51.060;3.638;2023-06-10T07:21:03;9.35;;;8.38;;
78612;SDS011;67933;51.060;3.638;2023-06-10T07:23:28;10.20;;;8.65;;
78612;SDS011;67933;51.060;3.638;2023-06-10T07:25:54;9.65;;;7.93;;
78612;SDS011;67933;51.060;3.638;2023-06-10T07:28:19;11.38;;;8.45;;
78612;SDS011;67933;51.060;3.638;2023-06-10T07:30:45;10.70;;;9.15;;
78612;SDS011;67933;51.060;3.638;2023-06-10T07:33:10;9.63;;;8.73;;
78612;SDS011;67933;51.060;3.638;2023-06-10T07:35:36;8.73;;;7.93;;
78612;SDS011;67933;51.060;3.638;2023-06-10T07:38:01;9.25;;;8.27;;
78612;SDS011;67933;51.060;3.638;2023-06-10T07:40:26;9.00;;;8.18;;
78612;SDS011;67933;51.060;3.638;2023-06-10T07:42:52;9.75;;;8.35;;
78612;SDS011;67933;51.060;3.638;2023-06-10T07:45:18;9.68;;;7.88;;
78612;SDS011;67933;51.060;3.638;2023-06-10T07:47:43;10.52;;;8.38;;
78612;SDS011;67933;51.060;3.638;2023-06-10T07:50:09;8.70;;;7.85;;
78612;SDS011;67933;51.060;3.638;2023-06-10T07:52:35;8.68;;;7.78;;
78612;SDS011;67933;51.060;3.638;2023-06-10T07:55:00;11.05;;;8.48;;
78612;SDS011;67933;51.060;3.638;2023-06-10T07:57:25;15.70;;;8.15;;
78612;SDS011;67933;51.060;3.638;2023-06-10T07:59:51;8.68;;;7.78;;
78612;SDS011;67933;51.060;3.638;2023-06-10T08:02:17;9.77;;;7.85;;
78612;SDS011;67933;51.060;3.638;2023-06-10T08:04:42;10.32;;;7.95;;
78612;SDS011;67933;51.060;3.638;2023-06-10T08:07:08;12.70;;;8.00;;
78612;SDS011;67933;51.060;3.638;2023-06-10T08:09:33;9.60;;;7.90;;
78612;SDS011;67933;51.060;3.638;2023-06-10T08:11:59;9.13;;;8.23;;
78612;SDS011;67933;51.060;3.638;2023-06-10T08:14:24;9.02;;;7.35;;
78612;SDS011;67933;51.060;3.638;2023-06-10T08:16:50;8.60;;;7.70;;
78612;SDS011;67933;51.060;3.638;2023-06-10T08:19:15;9.02;;;8.10;;
78612;SDS011;67933;51.060;3.638;2023-06-10T08:21:40;9.02;;;7.65;;
78612;SDS011;67933;51.060;3.638;2023-06-10T08:24:06;7.97;;;7.00;;
78612;SDS011;67933;51.060;3.638;2023-06-10T08:26:32;9.63;;;7.47;;
78612;SDS011;67933;51.060;3.638;2023-06-10T08:28:57;9.27;;;7.03;;
78612;SDS011;67933;51.060;3.638;2023-06-10T08:31:23;8.65;;;7.38;;
78612;SDS011;67933;51.060;3.638;2023-06-10T08:33:48;9.32;;;6.85;;
78612;SDS011;67933;51.060;3.638;2023-06-10T08:36:14;8.57;;;7.18;;
78612;SDS011;67933;51.060;3.638;2023-06-10T08:38:39;9.13;;;7.10;;
78612;SDS011;67933;51.060;3.638;2023-06-10T08:41:05;8.38;;;7.47;;
78612;SDS011;67933;51.060;3.638;2023-06-10T08:43:34;8.48;;;7.65;;
78612;SDS011;67933;51.060;3.638;2023-06-10T08:46:06;7.70;;;6.90;;
78612;SDS011;67933;51.060;3.638;2023-06-10T08:48:35;7.68;;;6.97;;
78612;SDS011;67933;51.060;3.638;2023-06-10T08:51:07;7.45;;;6.68;;
78612;SDS011;67933;51.060;3.638;2023-06-10T08:53:36;7.45;;;6.70;;
78612;SDS011;67933;51.060;3.638;2023-06-10T08:56:03;7.47;;;6.65;;
78612;SDS011;67933;51.060;3.638;2023-06-10T08:58:32;7.90;;;7.20;;
78612;SDS011;67933;51.060;3.638;2023-06-10T09:01:06;7.60;;;6.30;;
78612;SDS011;67933;51.060;3.638;2023-06-10T09:06:00;8.77;;;7.00;;
78612;SDS011;67933;51.060;3.638;2023-06-10T09:08:27;8.07;;;7.28;;
78612;SDS011;67933;51.060;3.638;2023-06-10T09:10:53;7.35;;;6.32;;
78612;SDS011;67933;51.060;3.638;2023-06-10T09:13:18;7.18;;;6.53;;
78612;SDS011;67933;51.060;3.638;2023-06-10T09:15:44;7.35;;;6.63;;
78612;SDS011;67933;51.060;3.638;2023-06-10T09:18:10;8.05;;;6.72;;
78612;SDS011;67933;51.060;3.638;2023-06-10T09:20:38;7.47;;;6.72;;
78612;SDS011;67933;51.060;3.638;2023-06-10T09:23:03;7.78;;;6.38;;
78612;SDS011;67933;51.060;3.638;2023-06-10T09:25:37;7.43;;;6.50;;
78612;SDS011;67933;51.060;3.638;2023-06-10T09:28:03;8.02;;;6.95;;
78612;SDS011;67933;51.060;3.638;2023-06-10T09:30:31;7.43;;;6.72;;
78612;SDS011;67933;51.060;3.638;2023-06-10T09:32:59;7.00;;;6.20;;
78612;SDS011;67933;51.060;3.638;2023-06-10T09:35:26;6.75;;;6.07;;
78612;SDS011;67933;51.060;3.638;2023-06-10T09:37:58;9.80;;;6.50;;
78612;SDS011;67933;51.060;3.638;2023-06-10T09:40:24;7.30;;;6.60;;
78612;SDS011;67933;51.060;3.638;2023-06-10T09:42:54;9.70;;;7.40;;
78612;SDS011;67933;51.060;3.638;2023-06-10T09:45:21;8.02;;;7.22;;
78612;SDS011;67933;51.060;3.638;2023-06-10T09:47:47;7.65;;;6.88;;
78612;SDS011;67933;51.060;3.638;2023-06-10T09:50:17;7.50;;;6.65;;
78612;SDS011;67933;51.060;3.638;2023-06-10T09:52:42;7.90;;;6.88;;
78612;SDS011;67933;51.060;3.638;2023-06-10T09:55:11;7.05;;;6.35;;
78612;SDS011;67933;51.060;3.638;2023-06-10T09:57:36;11.23;;;6.78;;
78612;SDS011;67933;51.060;3.638;2023-06-10T10:00:05;8.35;;;7.03;;
78612;SDS011;67933;51.060;3.638;2023-06-10T10:02:36;9.02;;;6.90;;
78612;SDS011;67933;51.060;3.638;2023-06-10T10:05:10;7.97;;;7.22;;
78612;SDS011;67933;51.060;3.638;2023-06-10T10:07:35;7.35;;;6.65;;
78612;SDS011;67933;51.060;3.638;2023-06-10T10:10:00;7.63;;;6.75;;
78612;SDS011;67933;51.060;3.638;2023-06-10T10:12:26;6.68;;;6.13;;
78612;SDS011;67933;51.060;3.638;2023-06-10T10:14:52;7.68;;;6.40;;
78612;SDS011;67933;51.060;3.638;2023-06-10T10:17:20;10.20;;;7.43;;
78612;SDS011;67933;51.060;3.638;2023-06-10T10:19:50;8.32;;;6.88;;
78612;SDS011;67933;51.060;3.638;2023-06-10T10:22:21;8.60;;;6.38;;
78612;SDS011;67933;51.060;3.638;2023-06-10T10:24:53;7.45;;;6.40;;
78612;SDS011;67933;51.060;3.638;2023-06-10T10:27:26;7.05;;;6.35;;
78612;SDS011;67933;51.060;3.638;2023-06-10T10:29:53;8.35;;;5.90;;
78612;SDS011;67933;51.060;3.638;2023-06-10T10:32:21;7.10;;;6.40;;
78612;SDS011;67933;51.060;3.638;2023-06-10T10:37:32;7.10;;;6.32;;
78612;SDS011;67933;51.060;3.638;2023-06-10T10:39:59;8.15;;;6.63;;
78612;SDS011;67933;51.060;3.638;2023-06-10T10:42:26;6.78;;;5.93;;
78612;SDS011;67933;51.060;3.638;2023-06-10T10:44:52;10.63;;;6.20;;
78612;SDS011;67933;51.060;3.638;2023-06-10T10:47:20;9.60;;;7.00;;
78612;SDS011;67933;51.060;3.638;2023-06-10T10:49:47;6.55;;;5.68;;
78612;SDS011;67933;51.060;3.638;2023-06-10T10:52:15;6.80;;;5.85;;
78612;SDS011;67933;51.060;3.638;2023-06-10T10:54:45;8.73;;;6.07;;
78612;SDS011;67933;51.060;3.638;2023-06-10T10:57:19;8.20;;;5.63;;
78612;SDS011;67933;51.060;3.638;2023-06-10T11:05:01;7.32;;;5.78;;
78612;SDS011;67933;51.060;3.638;2023-06-10T11:07:29;6.47;;;5.05;;
78612;SDS011;67933;51.060;3.638;2023-06-10T11:15:13;7.40;;;4.90;;
78612;SDS011;67933;51.060;3.638;2023-06-10T11:21:01;5.63;;;5.03;;
78612;SDS011;67933;51.060;3.638;2023-06-10T11:31:32;6.18;;;5.53;;
78612;SDS011;67933;51.060;3.638;2023-06-10T11:34:05;6.57;;;5.13;;
78612;SDS011;67933;51.060;3.638;2023-06-10T11:36:32;6.50;;;5.38;;
78612;SDS011;67933;51.060;3.638;2023-06-10T11:39:00;5.93;;;5.32;;
78612;SDS011;67933;51.060;3.638;2023-06-10T11:41:30;9.82;;;5.50;;
78612;SDS011;67933;51.060;3.638;2023-06-10T11:43:58;5.95;;;5.35;;
78612;SDS011;67933;51.060;3.638;2023-06-10T11:46:30;6.05;;;5.53;;
78612;SDS011;67933;51.060;3.638;2023-06-10T11:48:56;6.15;;;5.50;;
78612;SDS011;67933;51.060;3.638;2023-06-10T11:51:26;5.70;;;5.10;;
78612;SDS011;67933;51.060;3.638;2023-06-10T11:53:53;7.88;;;5.03;;
78612;SDS011;67933;51.060;3.638;2023-06-10T11:56:22;7.07;;;5.70;;
78612;SDS011;67933;51.060;3.638;2023-06-10T11:58:55;10.95;;;6.07;;
78612;SDS011;67933;51.060;3.638;2023-06-10T12:01:23;8.10;;;5.35;;
78612;SDS011;67933;51.060;3.638;2023-06-10T12:04:01;8.05;;;5.22;;
78612;SDS011;67933;51.060;3.638;2023-06-10T12:09:05;5.90;;;5.05;;
78612;SDS011;67933;51.060;3.638;2023-06-10T12:11:31;5.95;;;5.13;;
78612;SDS011;67933;51.060;3.638;2023-06-10T12:13:57;7.43;;;5.20;;
78612;SDS011;67933;51.060;3.638;2023-06-10T12:16:23;6.88;;;5.25;;
78612;SDS011;67933;51.060;3.638;2023-06-10T12:18:48;5.60;;;5.00;;
78612;SDS011;67933;51.060;3.638;2023-06-10T12:21:17;7.22;;;5.47;;
78612;SDS011;67933;51.060;3.638;2023-06-10T12:26:42;5.97;;;5.18;;
78612;SDS011;67933;51.060;3.638;2023-06-10T12:34:29;7.53;;;5.68;;
78612;SDS011;67933;51.060;3.638;2023-06-10T12:36:58;6.30;;;5.65;;
78612;SDS011;67933;51.060;3.638;2023-06-10T12:39:24;6.30;;;5.25;;
78612;SDS011;67933;51.060;3.638;2023-06-10T12:41:51;5.60;;;5.10;;
78612;SDS011;67933;51.060;3.638;2023-06-10T12:44:17;5.88;;;5.28;;
78612;SDS011;67933;51.060;3.638;2023-06-10T12:46:42;5.65;;;5.15;;
78612;SDS011;67933;51.060;3.638;2023-06-10T12:49:08;6.13;;;5.35;;
78612;SDS011;67933;51.060;3.638;2023-06-10T12:51:34;6.05;;;5.45;;
78612;SDS011;67933;51.060;3.638;2023-06-10T12:54:00;7.00;;;5.25;;
78612;SDS011;67933;51.060;3.638;2023-06-10T12:56:26;6.10;;;5.53;;
78612;SDS011;67933;51.060;3.638;2023-06-10T12:58:51;6.60;;;5.57;;
78612;SDS011;67933;51.060;3.638;2023-06-10T13:01:16;6.82;;;5.45;;
78612;SDS011;67933;51.060;3.638;2023-06-10T13:03:42;5.53;;;4.78;;
78612;SDS011;67933;51.060;3.638;2023-06-10T13:06:07;6.88;;;5.53;;
78612;SDS011;67933;51.060;3.638;2023-06-10T13:08:33;6.60;;;5.63;;
78612;SDS011;67933;51.060;3.638;2023-06-10T13:10:58;6.35;;;5.63;;
78612;SDS011;67933;51.060;3.638;2023-06-10T13:13:24;6.32;;;5.40;;
78612;SDS011;67933;51.060;3.638;2023-06-10T13:15:50;7.47;;;5.65;;
78612;SDS011;67933;51.060;3.638;2023-06-10T13:18:16;7.97;;;5.93;;
78612;SDS011;67933;51.060;3.638;2023-06-10T13:20:44;6.50;;;5.90;;
78612;SDS011;67933;51.060;3.638;2023-06-10T13:23:10;6.97;;;5.90;;
78612;SDS011;67933;51.060;3.638;2023-06-10T13:25:35;9.25;;;5.85;;
78612;SDS011;67933;51.060;3.638;2023-06-10T13:28:01;9.63;;;5.60;;
78612;SDS011;67933;51.060;3.638;2023-06-10T13:30:27;6.68;;;5.80;;
78612;SDS011;67933;51.060;3.638;2023-06-10T13:32:53;6.35;;;5.38;;
78612;SDS011;67933;51.060;3.638;2023-06-10T13:35:18;6.55;;;5.57;;
78612;SDS011;67933;51.060;3.638;2023-06-10T13:37:43;6.38;;;5.78;;
78612;SDS011;67933;51.060;3.638;2023-06-10T13:40:09;6.32;;;5.72;;
78612;SDS011;67933;51.060;3.638;2023-06-10T13:42:35;6.35;;;5.70;;
78612;SDS011;67933;51.060;3.638;2023-06-10T13:45:01;5.95;;;5.43;;
78612;SDS011;67933;51.060;3.638;2023-06-10T13:47:27;12.18;;;6.38;;
78612;SDS011;67933;51.060;3.638;2023-06-10T13:49:53;8.52;;;6.07;;
78612;SDS011;67933;51.060;3.638;2023-06-10T13:52:18;7.32;;;6.10;;
78612;SDS011;67933;51.060;3.638;2023-06-10T13:54:43;6.22;;;5.72;;
78612;SDS011;67933;51.060;3.638;2023-06-10T13:57:09;6.30;;;5.72;;
78612;SDS011;67933;51.060;3.638;2023-06-10T13:59:35;7.47;;;5.95;;
78612;SDS011;67933;51.060;3.638;2023-06-10T14:02:01;8.60;;;6.28;;
78612;SDS011;67933;51.060;3.638;2023-06-10T14:04:26;6.68;;;5.82;;
78612;SDS011;67933;51.060;3.638;2023-06-10T14:06:52;7.45;;;6.18;;
78612;SDS011;67933;51.060;3.638;2023-06-10T14:09:17;6.97;;;6.28;;
78612;SDS011;67933;51.060;3.638;2023-06-10T14:11:44;8.38;;;6.30;;
78612;SDS011;67933;51.060;3.638;2023-06-10T14:14:09;6.88;;;6.00;;
78612;SDS011;67933;51.060;3.638;2023-06-10T14:16:35;6.85;;;6.13;;
78612;SDS011;67933;51.060;3.638;2023-06-10T14:19:00;9.50;;;6.68;;
78612;SDS011;67933;51.060;3.638;2023-06-10T14:21:26;6.88;;;5.93;;
78612;SDS011;67933;51.060;3.638;2023-06-10T14:23:51;6.75;;;6.00;;
78612;SDS011;67933;51.060;3.638;2023-06-10T14:26:18;7.53;;;6.03;;
78612;SDS011;67933;51.060;3.638;2023-06-10T14:28:44;6.90;;;6.30;;
78612;SDS011;67933;51.060;3.638;2023-06-10T14:31:09;7.13;;;6.47;;
78612;SDS011;67933;51.060;3.638;2023-06-10T14:33:35;9.65;;;6.35;;
78612;SDS011;67933;51.060;3.638;2023-06-10T14:36:01;6.43;;;5.82;;
78612;SDS011;67933;51.060;3.638;2023-06-10T14:38:27;6.32;;;5.82;;
78612;SDS011;67933;51.060;3.638;2023-06-10T14:40:52;6.20;;;5.50;;
78612;SDS011;67933;51.060;3.638;2023-06-10T14:43:18;6.90;;;6.20;;
78612;SDS011;67933;51.060;3.638;2023-06-10T14:45:43;9.35;;;6.00;;
78612;SDS011;67933;51.060;3.638;2023-06-10T14:48:10;7.70;;;6.18;;
78612;SDS011;67933;51.060;3.638;2023-06-10T14:50:36;9.60;;;6.80;;
78612;SDS011;67933;51.060;3.638;2023-06-10T14:53:02;8.60;;;6.40;;
78612;SDS011;67933;51.060;3.638;2023-06-10T14:55:27;6.88;;;5.90;;
78612;SDS011;67933;51.060;3.638;2023-06-10T14:57:53;7.43;;;6.07;;
78612;SDS011;67933;51.060;3.638;2023-06-10T15:00:18;7.05;;;5.97;;
78612;SDS011;67933;51.060;3.638;2023-06-10T15:02:50;7.20;;;6.22;;
78612;SDS011;67933;51.060;3.638;2023-06-10T15:05:16;6.70;;;6.10;;
78612;SDS011;67933;51.060;3.638;2023-06-10T15:07:43;7.05;;;5.90;;
78612;SDS011;67933;51.060;3.638;2023-06-10T15:10:09;6.90;;;6.20;;
78612;SDS011;67933;51.060;3.638;2023-06-10T15:12:35;6.50;;;5.93;;
78612;SDS011;67933;51.060;3.638;2023-06-10T15:15:01;7.72;;;6.22;;
78612;SDS011;67933;51.060;3.638;2023-06-10T15:17:27;6.57;;;5.80;;
78612;SDS011;67933;51.060;3.638;2023-06-10T15:19:53;6.22;;;5.63;;